Terminal Aerodrome Forecast
Issued by NWS

Home | Current Version | Previous Version | Text Only | Print | Product List | Glossary On
Versions: 1 2 3 4 5 6 7 8 9 10 11 12 13 14 15
000
FTUS43 KGLD 241732 AAB
TAFMCK
TAF AMD
KMCK 241732Z 2418/2518 33017G27KT 6SM -SHRA BKN015 OVC040
     FM242000 34018G27KT P6SM VCSH OVC025
     FM250200 33012KT P6SM BKN015
     FM250900 33010KT P6SM OVC008
     FM251500 33011KT P6SM BKN020=

USA.gov is the U.S. government's official web portal to all federal, state and local government web resources and services.